Okesa, Oklahoma
Current Conditions -  °F | °C
As of 11:53 AM on Monday 24 Nov 2014 (Local Time) from KBVO Reporting Station
Clear Clear  
Wind Chill: 52°   Ceiling: Unl
Heat Index: 52°   Visibility: 10mi
Dew Point: 26°   Wind: 10mph
Humidity: 37%   Direction: 300°WNW
Pressure: 29.91"   Gusts: 24mph
Location:  36.7524°N, 96.0733°W
Report Text: KBVO 241753Z AUTO 30009G21KT 10SM CLR 11/M03 A2991 RMK AO2 SLP127 T01111033 10111 20006 50008
Loading
Personal Weather Stations






























Interactive Weather Map New forecast layout! Learn more

10-Day Weather Forecast

Advertisements
Track Severe Weather on mobile